Time;durP1;ratioP1;P1;durP2;ratioP2;P2;SDS_P1;SDS_P2;PMS_P1;PMS_P2;Temp;Humidity;BMP_temperature;BMP_pressure;BME280_temperature;BME280_humidity;BME280_pressure;Samples;Min_cycle;Max_cycle;Signal;HPM_P1;HPM_P2
2020/12/12 00:00:31;;;;;;;15.87;11.27;;;;;;;;;;5073837;28;20808;-67
2020/12/12 00:02:57;;;;;;;19.13;10.50;;;;;;;;;;5072307;28;20421;-68
2020/12/12 00:05:23;;;;;;;20.70;10.90;;;;;;;;;;5076120;28;20402;-66
2020/12/12 00:07:49;;;;;;;18.63;9.47;;;;;;;;;;5074807;28;20478;-68
2020/12/12 00:10:15;;;;;;;19.87;10.60;;;;;;;;;;5075524;28;20464;-67
2020/12/12 00:12:42;;;;;;;23.00;11.50;;;;;;;;;;5075633;28;20413;-67
2020/12/12 00:15:08;;;;;;;18.87;10.30;;;;;;;;;;5075014;28;20432;-67
2020/12/12 00:17:34;;;;;;;20.70;10.57;;;;;;;;;;5075436;28;20420;-67
2020/12/12 00:20:00;;;;;;;17.47;10.33;;;;;;;;;;5073822;28;20519;-67
2020/12/12 00:22:26;;;;;;;21.43;10.53;;;;;;;;;;5075375;28;20397;-67
2020/12/12 00:24:52;;;;;;;16.20;10.57;;;;;;;;;;5074250;28;20424;-67
2020/12/12 00:27:21;;;;;;;20.80;10.80;;;;;;;;;;5075351;28;20566;-67
2020/12/12 00:29:47;;;;;;;21.97;12.53;;;;;;;;;;5074325;28;20499;-67
2020/12/12 00:32:13;;;;;;;17.97;10.73;;;;;;;;;;5075312;28;20444;-67
2020/12/12 00:34:39;;;;;;;19.77;10.60;;;;;;;;;;5073079;28;20424;-67
2020/12/12 00:37:05;;;;;;;21.50;12.13;;;;;;;;;;5074314;28;20807;-67
2020/12/12 00:39:31;;;;;;;17.97;9.00;;;;;;;;;;5074054;28;20989;-67
2020/12/12 00:41:57;;;;;;;22.67;10.83;;;;;;;;;;5075185;28;20401;-67
2020/12/12 00:44:23;;;;;;;15.37;9.50;;;;;;;;;;5074130;28;20420;-67
2020/12/12 00:46:49;;;;;;;17.50;11.57;;;;;;;;;;5073550;28;20433;-67
2020/12/12 00:49:15;;;;;;;20.60;10.27;;;;;;;;;;5074162;28;20427;-67
2020/12/12 00:51:41;;;;;;;21.50;11.47;;;;;;;;;;5073985;28;20467;-67
2020/12/12 00:54:07;;;;;;;14.97;9.40;;;;;;;;;;5073896;28;20424;-67
2020/12/12 00:56:33;;;;;;;21.67;9.27;;;;;;;;;;5074934;28;20417;-67
2020/12/12 00:58:59;;;;;;;19.40;10.40;;;;;;;;;;5073278;28;20441;-67
2020/12/12 01:01:25;;;;;;;16.80;9.93;;;;;;;;;;5073190;28;20447;-68
2020/12/12 01:03:52;;;;;;;18.60;10.90;;;;;;;;;;5070304;28;20921;-67
2020/12/12 01:06:19;;;;;;;20.37;11.73;;;;;;;;;;5074536;28;20972;-67
2020/12/12 01:08:46;;;;;;;19.40;11.03;;;;;;;;;;5055797;28;20429;-66
2020/12/12 01:11:12;;;;;;;17.70;11.10;;;;;;;;;;5074592;28;20448;-67
2020/12/12 01:13:39;;;;;;;19.33;10.50;;;;;;;;;;5073789;28;20425;-67
2020/12/12 01:16:08;;;;;;;21.07;11.07;;;;;;;;;;5074259;28;20437;-67
2020/12/12 01:18:35;;;;;;;18.80;10.50;;;;;;;;;;5073355;28;20417;-66
2020/12/12 01:21:01;;;;;;;21.30;10.10;;;;;;;;;;5074306;28;20435;-66
2020/12/12 01:23:27;;;;;;;21.73;11.33;;;;;;;;;;5073429;28;20467;-66
2020/12/12 01:25:53;;;;;;;18.43;9.30;;;;;;;;;;5072445;28;20429;-66
2020/12/12 01:28:21;;;;;;;16.97;9.50;;;;;;;;;;5073405;28;20485;-66
2020/12/12 01:30:47;;;;;;;16.67;10.23;;;;;;;;;;5074272;28;20468;-66
2020/12/12 01:33:13;;;;;;;20.83;9.63;;;;;;;;;;5072097;28;20404;-66
2020/12/12 01:35:39;;;;;;;26.77;11.40;;;;;;;;;;5074114;28;20405;-66
2020/12/12 01:38:05;;;;;;;17.70;10.07;;;;;;;;;;5073888;28;20439;-66
2020/12/12 01:40:31;;;;;;;18.70;9.63;;;;;;;;;;5072885;28;20425;-66
2020/12/12 01:42:57;;;;;;;18.83;9.87;;;;;;;;;;5074067;28;20389;-66
2020/12/12 01:45:23;;;;;;;20.87;11.87;;;;;;;;;;5072758;28;20428;-66
2020/12/12 01:47:49;;;;;;;17.80;10.23;;;;;;;;;;5073974;28;20428;-66
2020/12/12 01:50:16;;;;;;;18.93;10.63;;;;;;;;;;5072862;28;20463;-65
2020/12/12 01:52:42;;;;;;;15.00;8.20;;;;;;;;;;5073985;28;20488;-65
2020/12/12 01:55:08;;;;;;;17.97;10.83;;;;;;;;;;5072591;28;20478;-65
2020/12/12 01:57:35;;;;;;;19.43;9.03;;;;;;;;;;5073779;28;20933;-65
2020/12/12 02:00:01;;;;;;;20.37;10.83;;;;;;;;;;5072999;28;20814;-65
2020/12/12 02:02:27;;;;;;;17.07;10.37;;;;;;;;;;5073719;28;20785;-65
2020/12/12 02:04:54;;;;;;;18.60;11.43;;;;;;;;;;5067728;28;20467;-66
2020/12/12 02:07:20;;;;;;;15.80;8.47;;;;;;;;;;5073566;28;20444;-65
2020/12/12 02:09:47;;;;;;;19.57;9.93;;;;;;;;;;5086426;22;20980;-67
2020/12/12 02:12:20;;;;;;;19.07;9.87;;;;;;;;;;5052901;28;20395;-68
2020/12/12 02:14:46;;;;;;;16.40;9.30;;;;;;;;;;5048751;28;20418;-68
2020/12/12 02:17:12;;;;;;;15.77;9.50;;;;;;;;;;5033025;28;20406;-68
2020/12/12 02:19:38;;;;;;;18.13;10.00;;;;;;;;;;5033158;28;20451;-67
2020/12/12 02:22:05;;;;;;;18.67;10.30;;;;;;;;;;5032649;28;20754;-68
2020/12/12 02:24:33;;;;;;;16.67;9.67;;;;;;;;;;5051658;28;20536;-67
2020/12/12 02:27:00;;;;;;;13.07;8.50;;;;;;;;;;5052793;28;20402;-68
2020/12/12 02:29:29;;;;;;;18.17;9.73;;;;;;;;;;5065846;28;20801;-68
2020/12/12 02:31:55;;;;;;;17.33;11.20;;;;;;;;;;5052522;28;20451;-68
2020/12/12 02:34:21;;;;;;;14.27;8.77;;;;;;;;;;5050024;28;20424;-67
2020/12/12 02:36:47;;;;;;;14.90;9.40;;;;;;;;;;5032746;28;20383;-67
2020/12/12 02:39:14;;;;;;;17.43;9.30;;;;;;;;;;5032985;28;20476;-68
2020/12/12 02:41:40;;;;;;;21.10;10.77;;;;;;;;;;5052728;28;20397;-68
2020/12/12 02:44:06;;;;;;;18.73;9.50;;;;;;;;;;5046622;28;20422;-67
2020/12/12 02:46:32;;;;;;;18.60;9.47;;;;;;;;;;5052223;28;20421;-67
2020/12/12 02:48:58;;;;;;;13.43;8.80;;;;;;;;;;5052109;28;20418;-67
2020/12/12 02:51:24;;;;;;;17.73;10.03;;;;;;;;;;5050970;28;20815;-67
2020/12/12 02:53:50;;;;;;;14.33;8.27;;;;;;;;;;5052888;28;20496;-68
2020/12/12 02:56:17;;;;;;;17.00;9.33;;;;;;;;;;5052474;28;20414;-67
2020/12/12 02:58:43;;;;;;;16.07;9.57;;;;;;;;;;5053038;28;20878;-67
2020/12/12 03:01:09;;;;;;;13.77;9.60;;;;;;;;;;5051720;28;20428;-67
2020/12/12 03:03:35;;;;;;;14.23;9.90;;;;;;;;;;5048456;28;20517;-67
2020/12/12 03:06:02;;;;;;;13.67;8.50;;;;;;;;;;5044822;28;20433;-67
2020/12/12 03:08:28;;;;;;;13.47;7.77;;;;;;;;;;5053992;28;20420;-67
2020/12/12 03:10:54;;;;;;;16.23;9.57;;;;;;;;;;5058769;28;20461;-69
2020/12/12 03:13:20;;;;;;;11.80;7.70;;;;;;;;;;5058880;28;20428;-67
2020/12/12 03:15:46;;;;;;;16.37;9.07;;;;;;;;;;5044876;28;20422;-69
2020/12/12 03:18:13;;;;;;;16.80;9.17;;;;;;;;;;5054487;28;20475;-68
2020/12/12 03:20:39;;;;;;;15.03;9.13;;;;;;;;;;5052546;28;20449;-68
2020/12/12 03:23:05;;;;;;;19.03;10.40;;;;;;;;;;5052893;28;20503;-67
2020/12/12 03:25:31;;;;;;;13.57;9.27;;;;;;;;;;5053114;28;20425;-68
2020/12/12 03:27:57;;;;;;;15.23;7.47;;;;;;;;;;5056389;28;20892;-68
2020/12/12 03:30:23;;;;;;;13.93;8.07;;;;;;;;;;5055180;28;20791;-68
2020/12/12 03:32:49;;;;;;;17.30;8.53;;;;;;;;;;5055924;28;20413;-67
2020/12/12 03:35:15;;;;;;;18.80;8.23;;;;;;;;;;5055019;28;20413;-67
2020/12/12 03:37:41;;;;;;;19.00;9.70;;;;;;;;;;5056014;28;20906;-67
2020/12/12 03:40:07;;;;;;;18.13;10.63;;;;;;;;;;5054952;28;20930;-67
2020/12/12 03:42:33;;;;;;;18.13;10.30;;;;;;;;;;5054506;28;20410;-68
2020/12/12 03:44:59;;;;;;;17.90;10.20;;;;;;;;;;5054844;28;20878;-68
2020/12/12 03:47:25;;;;;;;14.53;9.40;;;;;;;;;;5055706;28;20394;-67
2020/12/12 03:49:51;;;;;;;14.60;8.50;;;;;;;;;;5053986;28;20473;-68
2020/12/12 03:52:17;;;;;;;16.43;8.37;;;;;;;;;;5055552;28;20902;-68
2020/12/12 03:54:43;;;;;;;17.57;9.50;;;;;;;;;;5054399;28;20528;-67
2020/12/12 03:57:10;;;;;;;16.97;9.70;;;;;;;;;;5055515;28;20878;-68
2020/12/12 03:59:36;;;;;;;15.53;9.33;;;;;;;;;;5054541;28;20445;-67
2020/12/12 04:02:02;;;;;;;13.90;8.80;;;;;;;;;;5050608;28;20509;-68
2020/12/12 04:04:28;;;;;;;14.60;8.83;;;;;;;;;;5035448;28;20395;-67
2020/12/12 04:06:54;;;;;;;17.03;9.43;;;;;;;;;;5036609;28;20419;-68
2020/12/12 04:09:20;;;;;;;14.70;8.60;;;;;;;;;;5054419;28;20463;-67
2020/12/12 04:11:46;;;;;;;15.60;10.23;;;;;;;;;;5054544;28;20537;-67
2020/12/12 04:14:12;;;;;;;15.90;9.50;;;;;;;;;;5055679;28;20416;-67
2020/12/12 04:16:38;;;;;;;12.13;8.20;;;;;;;;;;5054133;28;20509;-68
2020/12/12 04:19:04;;;;;;;15.97;8.90;;;;;;;;;;5054892;28;20426;-67
2020/12/12 04:21:30;;;;;;;11.53;7.77;;;;;;;;;;5053952;28;20425;-67
2020/12/12 04:23:56;;;;;;;12.00;7.90;;;;;;;;;;5053149;28;20533;-67
2020/12/12 04:26:23;;;;;;;15.03;8.63;;;;;;;;;;5053688;28;20436;-67
2020/12/12 04:28:49;;;;;;;13.63;7.87;;;;;;;;;;5055239;28;20579;-67
2020/12/12 04:31:15;;;;;;;15.67;9.50;;;;;;;;;;5053666;28;20461;-67
2020/12/12 04:33:41;;;;;;;13.57;7.83;;;;;;;;;;5055041;28;20839;-67
2020/12/12 04:36:07;;;;;;;17.70;8.13;;;;;;;;;;5043523;28;20426;-67
2020/12/12 04:38:35;;;;;;;10.70;6.90;;;;;;;;;;5034794;28;20406;-67
2020/12/12 04:41:02;;;;;;;18.50;9.37;;;;;;;;;;5035119;28;20916;-68
2020/12/12 04:43:30;;;;;;;17.87;9.27;;;;;;;;;;5034970;28;20498;-67
2020/12/12 04:45:56;;;;;;;14.40;8.73;;;;;;;;;;5034725;28;20427;-68
2020/12/12 04:48:23;;;;;;;20.97;9.17;;;;;;;;;;5034477;28;20772;-68
2020/12/12 04:50:49;;;;;;;14.47;8.83;;;;;;;;;;5045950;28;20545;-68
2020/12/12 04:53:16;;;;;;;13.40;8.60;;;;;;;;;;5054279;28;20449;-68
2020/12/12 04:55:44;;;;;;;15.00;8.53;;;;;;;;;;5053539;28;20537;-68
2020/12/12 04:58:12;;;;;;;14.70;7.83;;;;;;;;;;5054395;28;20417;-68
2020/12/12 05:00:39;;;;;;;18.90;9.57;;;;;;;;;;5055285;28;20811;-67
2020/12/12 05:03:05;;;;;;;11.63;8.00;;;;;;;;;;5069509;28;20932;-68
2020/12/12 05:05:31;;;;;;;10.50;6.77;;;;;;;;;;5050388;28;20419;-67
2020/12/12 05:07:57;;;;;;;9.83;7.50;;;;;;;;;;5034400;28;20910;-67
2020/12/12 05:10:26;;;;;;;12.30;8.60;;;;;;;;;;5046129;28;21057;-68
2020/12/12 05:12:52;;;;;;;12.80;7.90;;;;;;;;;;5053667;28;20460;-67
2020/12/12 05:15:18;;;;;;;13.00;8.20;;;;;;;;;;5052909;28;20920;-67
2020/12/12 05:17:47;;;;;;;15.33;8.00;;;;;;;;;;5054110;28;20485;-67
2020/12/12 05:20:13;;;;;;;12.30;7.80;;;;;;;;;;5052587;28;20425;-67
2020/12/12 05:22:39;;;;;;;13.17;9.67;;;;;;;;;;5053935;28;20420;-68
2020/12/12 05:25:05;;;;;;;15.20;9.60;;;;;;;;;;5053660;28;20873;-67
2020/12/12 05:27:31;;;;;;;12.77;8.33;;;;;;;;;;5052981;28;20429;-68
2020/12/12 05:29:58;;;;;;;15.93;9.93;;;;;;;;;;5050281;28;20465;-67
2020/12/12 05:32:24;;;;;;;13.17;8.40;;;;;;;;;;5052491;28;20426;-67
2020/12/12 05:34:53;;;;;;;16.70;9.13;;;;;;;;;;5068803;28;20964;-68
2020/12/12 05:37:20;;;;;;;12.27;8.30;;;;;;;;;;5052744;28;20926;-68
2020/12/12 05:39:49;;;;;;;14.30;7.17;;;;;;;;;;5053265;28;20426;-68
2020/12/12 05:42:21;;;;;;;12.63;8.03;;;;;;;;;;5052437;28;20426;-66
2020/12/12 05:44:53;;;;;;;17.57;9.43;;;;;;;;;;5053343;28;20897;-67
2020/12/12 05:47:19;;;;;;;16.13;9.07;;;;;;;;;;5051955;28;20795;-67
2020/12/12 05:49:48;;;;;;;12.17;7.50;;;;;;;;;;5053269;28;20422;-67
2020/12/12 05:52:15;;;;;;;15.30;8.33;;;;;;;;;;5052396;28;20431;-67
2020/12/12 05:54:41;;;;;;;18.27;9.40;;;;;;;;;;5053629;28;20501;-67
2020/12/12 05:57:08;;;;;;;11.60;8.13;;;;;;;;;;5052295;28;20453;-67
2020/12/12 05:59:34;;;;;;;16.73;9.30;;;;;;;;;;5053168;28;20454;-66
2020/12/12 06:02:05;;;;;;;10.20;7.30;;;;;;;;;;5051627;28;20438;-66
2020/12/12 06:04:35;;;;;;;17.70;8.77;;;;;;;;;;5053070;28;20409;-67
2020/12/12 06:07:05;;;;;;;16.20;8.63;;;;;;;;;;5052231;28;20421;-67
2020/12/12 06:09:36;;;;;;;11.50;6.87;;;;;;;;;;5052999;28;20438;-67
2020/12/12 06:12:03;;;;;;;12.27;6.87;;;;;;;;;;5045982;28;21015;-67
2020/12/12 06:14:35;;;;;;;13.03;8.00;;;;;;;;;;5053014;28;20402;-67
2020/12/12 06:17:06;;;;;;;11.90;8.00;;;;;;;;;;5052224;28;20429;-67
2020/12/12 06:19:33;;;;;;;14.17;7.47;;;;;;;;;;5052850;28;20414;-67
2020/12/12 06:21:59;;;;;;;11.47;6.70;;;;;;;;;;5051364;28;20945;-67
2020/12/12 06:24:25;;;;;;;13.60;8.47;;;;;;;;;;5052803;28;20390;-67
2020/12/12 06:27:00;;;;;;;14.37;7.63;;;;;;;;;;5053389;28;20456;-67
2020/12/12 06:29:27;;;;;;;14.13;8.27;;;;;;;;;;5052712;28;20434;-67
2020/12/12 06:31:54;;;;;;;13.67;8.97;;;;;;;;;;5050811;28;20996;-67
2020/12/12 06:34:38;;;;;;;17.40;9.70;;;;;;;;;;5052954;28;20434;-67
2020/12/12 06:37:04;;;;;;;14.00;7.33;;;;;;;;;;5050441;28;20444;-67
2020/12/12 06:39:30;;;;;;;13.27;9.27;;;;;;;;;;5052704;28;20422;-67
2020/12/12 06:41:58;;;;;;;13.03;7.57;;;;;;;;;;5051692;28;20472;-67
2020/12/12 06:44:34;;;;;;;12.87;8.00;;;;;;;;;;5052759;28;20437;-67
2020/12/12 06:47:00;;;;;;;12.33;7.93;;;;;;;;;;5051885;28;20424;-67
2020/12/12 06:49:26;;;;;;;16.27;8.53;;;;;;;;;;5052430;28;20789;-67
2020/12/12 06:51:52;;;;;;;15.30;8.87;;;;;;;;;;5046819;28;20466;-67
2020/12/12 06:54:19;;;;;;;12.03;8.17;;;;;;;;;;5031097;28;20446;-67
2020/12/12 06:56:45;;;;;;;12.87;7.40;;;;;;;;;;5039185;28;20448;-67
2020/12/12 06:59:23;;;;;;;14.27;8.23;;;;;;;;;;5053224;28;20418;-67
2020/12/12 07:01:53;;;;;;;19.00;9.63;;;;;;;;;;5055627;28;20487;-67
2020/12/12 07:04:26;;;;;;;15.87;7.90;;;;;;;;;;5056629;28;20418;-67
2020/12/12 07:06:56;;;;;;;14.53;8.77;;;;;;;;;;5055645;28;20440;-67
2020/12/12 07:09:22;;;;;;;14.33;7.90;;;;;;;;;;5056511;28;20537;-67
2020/12/12 07:11:48;;;;;;;10.97;7.13;;;;;;;;;;5052387;28;20458;-67
2020/12/12 07:14:15;;;;;;;14.10;8.00;;;;;;;;;;5054178;28;20422;-67
2020/12/12 07:16:41;;;;;;;13.90;7.90;;;;;;;;;;5055809;28;20433;-68
2020/12/12 07:19:07;;;;;;;12.47;8.60;;;;;;;;;;5056788;28;20829;-68
2020/12/12 07:21:37;;;;;;;12.40;7.53;;;;;;;;;;5055521;28;20394;-68
2020/12/12 07:24:03;;;;;;;12.80;8.17;;;;;;;;;;5056831;28;20506;-68
2020/12/12 07:26:29;;;;;;;12.20;8.23;;;;;;;;;;5055318;28;20771;-68
2020/12/12 07:28:55;;;;;;;14.57;9.60;;;;;;;;;;5047844;28;20529;-67
2020/12/12 07:31:21;;;;;;;12.63;8.40;;;;;;;;;;5035995;28;20554;-68
2020/12/12 07:33:50;;;;;;;12.10;8.37;;;;;;;;;;5036727;28;20430;-68
2020/12/12 07:36:17;;;;;;;13.57;8.77;;;;;;;;;;5036251;28;20418;-68
2020/12/12 07:38:43;;;;;;;14.83;7.90;;;;;;;;;;5054438;28;20513;-68
2020/12/12 07:41:13;;;;;;;18.83;10.07;;;;;;;;;;5055998;28;20394;-68
2020/12/12 07:43:52;;;;;;;11.50;8.03;;;;;;;;;;5054884;28;20432;-67
2020/12/12 07:46:18;;;;;;;13.87;8.80;;;;;;;;;;5056163;28;20402;-67
2020/12/12 07:48:44;;;;;;;14.20;8.17;;;;;;;;;;5054956;28;20455;-69
2020/12/12 07:51:14;;;;;;;12.10;8.00;;;;;;;;;;5055641;28;20449;-67
2020/12/12 07:53:40;;;;;;;12.90;8.00;;;;;;;;;;5054722;28;20422;-67
2020/12/12 07:56:07;;;;;;;13.70;9.43;;;;;;;;;;5071053;28;20614;-68
2020/12/12 07:58:36;;;;;;;17.20;8.80;;;;;;;;;;5070068;28;20418;-68
2020/12/12 08:01:04;;;;;;;13.03;7.97;;;;;;;;;;5055847;28;20438;-67
2020/12/12 08:03:30;;;;;;;14.10;8.70;;;;;;;;;;5053785;28;20434;-68
2020/12/12 08:06:06;;;;;;;13.93;8.47;;;;;;;;;;5055534;28;20406;-68
2020/12/12 08:08:32;;;;;;;14.23;9.50;;;;;;;;;;5054636;28;20538;-69
2020/12/12 08:11:02;;;;;;;14.07;8.60;;;;;;;;;;5087228;22;20596;-64
2020/12/12 08:13:28;;;;;;;13.80;9.03;;;;;;;;;;5070591;28;20496;-64
2020/12/12 08:16:09;;;;;;;14.30;9.03;;;;;;;;;;5071531;28;20776;-64
2020/12/12 08:18:35;;;;;;;14.00;8.10;;;;;;;;;;5074951;28;20519;-65
2020/12/12 08:21:10;;;;;;;13.23;8.93;;;;;;;;;;5076287;28;20955;-65
2020/12/12 08:23:37;;;;;;;13.70;8.97;;;;;;;;;;5074977;28;20427;-65
2020/12/12 08:26:03;;;;;;;11.30;7.70;;;;;;;;;;5075648;28;20408;-65
2020/12/12 08:28:29;;;;;;;16.50;8.80;;;;;;;;;;5074702;28;20526;-65
2020/12/12 08:31:11;;;;;;;16.43;9.43;;;;;;;;;;5073684;28;20468;-65
2020/12/12 08:33:37;;;;;;;12.07;8.03;;;;;;;;;;5073657;28;20437;-65
2020/12/12 08:36:10;;;;;;;12.40;7.07;;;;;;;;;;5074905;28;20512;-65
2020/12/12 08:38:37;;;;;;;11.93;7.57;;;;;;;;;;5074631;28;20792;-65
2020/12/12 08:41:10;;;;;;;13.07;7.60;;;;;;;;;;5075187;28;20432;-64
2020/12/12 08:43:36;;;;;;;12.43;7.10;;;;;;;;;;5074860;28;21071;-65
2020/12/12 08:46:03;;;;;;;13.00;8.47;;;;;;;;;;5075373;28;20488;-65
2020/12/12 08:48:33;;;;;;;12.90;7.90;;;;;;;;;;5074448;28;20440;-65
2020/12/12 08:50:59;;;;;;;16.70;8.67;;;;;;;;;;5074951;28;20552;-65
2020/12/12 08:53:34;;;;;;;12.73;8.40;;;;;;;;;;5074019;28;20436;-65
2020/12/12 08:56:06;;;;;;;16.87;7.80;;;;;;;;;;5074983;28;20404;-65
2020/12/12 08:58:32;;;;;;;13.77;8.60;;;;;;;;;;5073783;28;20421;-64
2020/12/12 09:01:17;;;;;;;11.70;7.50;;;;;;;;;;5075219;28;20436;-64
2020/12/12 09:03:53;;;;;;;11.80;7.30;;;;;;;;;;5072858;28;20974;-64
2020/12/12 09:06:19;;;;;;;14.47;7.97;;;;;;;;;;5074857;28;20432;-64
2020/12/12 09:08:45;;;;;;;17.43;8.23;;;;;;;;;;5074541;28;20425;-64
2020/12/12 09:11:12;;;;;;;13.27;6.93;;;;;;;;;;5075586;28;20472;-64
2020/12/12 09:13:38;;;;;;;14.57;8.20;;;;;;;;;;5082824;28;20432;-64
2020/12/12 09:16:05;;;;;;;11.90;6.90;;;;;;;;;;5076371;28;20460;-64
2020/12/12 09:18:31;;;;;;;11.67;7.47;;;;;;;;;;5074490;28;20532;-64
2020/12/12 09:20:57;;;;;;;11.10;6.57;;;;;;;;;;5074861;28;20421;-64
2020/12/12 09:23:22;;;;;;;12.20;7.70;;;;;;;;;;5073694;28;20515;-63
2020/12/12 09:25:48;;;;;;;14.40;6.83;;;;;;;;;;5074441;28;20405;-65
2020/12/12 09:28:14;;;;;;;13.70;6.70;;;;;;;;;;5072855;28;20436;-65
2020/12/12 09:30:40;;;;;;;9.93;6.53;;;;;;;;;;5074246;28;20539;-65
2020/12/12 09:33:06;;;;;;;7.97;5.57;;;;;;;;;;5073563;28;20516;-63
2020/12/12 09:35:32;;;;;;;10.17;5.63;;;;;;;;;;5074529;28;20737;-64
2020/12/12 09:37:58;;;;;;;10.13;5.53;;;;;;;;;;5072871;28;20429;-64
2020/12/12 09:40:24;;;;;;;9.53;5.57;;;;;;;;;;5073803;28;20428;-64
2020/12/12 09:42:50;;;;;;;7.30;4.60;;;;;;;;;;5072978;28;20882;-64
2020/12/12 09:45:16;;;;;;;6.03;4.60;;;;;;;;;;5074291;28;20455;-63
2020/12/12 09:47:42;;;;;;;8.50;4.87;;;;;;;;;;5072208;28;20412;-65
2020/12/12 09:50:08;;;;;;;5.40;4.67;;;;;;;;;;5073800;28;20459;-64
2020/12/12 09:52:34;;;;;;;6.93;4.37;;;;;;;;;;5069616;28;20500;-67
2020/12/12 09:55:00;;;;;;;8.03;4.63;;;;;;;;;;5069562;28;20425;-64
2020/12/12 09:57:27;;;;;;;7.17;4.73;;;;;;;;;;5063849;28;20445;-63
2020/12/12 09:59:53;;;;;;;8.50;4.70;;;;;;;;;;5072256;28;20487;-64
2020/12/12 10:02:19;;;;;;;7.97;4.80;;;;;;;;;;5080830;28;20781;-63
2020/12/12 10:04:45;;;;;;;6.60;4.40;;;;;;;;;;5080001;28;20497;-65
2020/12/12 10:07:11;;;;;;;7.90;4.27;;;;;;;;;;5074947;28;20500;-64
2020/12/12 10:09:37;;;;;;;6.80;4.63;;;;;;;;;;5074587;28;20457;-64
2020/12/12 10:12:03;;;;;;;7.13;4.47;;;;;;;;;;5073829;28;20456;-62
2020/12/12 10:14:29;;;;;;;6.23;5.07;;;;;;;;;;5072385;28;20958;-64
2020/12/12 10:16:56;;;;;;;10.13;4.70;;;;;;;;;;5071842;28;20431;-64
2020/12/12 10:19:23;;;;;;;6.97;4.30;;;;;;;;;;5069705;28;20444;-64
2020/12/12 10:21:49;;;;;;;6.60;4.30;;;;;;;;;;5071764;28;20417;-64
2020/12/12 10:24:15;;;;;;;6.10;3.70;;;;;;;;;;5072059;28;20479;-66
2020/12/12 10:26:41;;;;;;;6.63;3.90;;;;;;;;;;5066003;28;20417;-66
2020/12/12 10:29:07;;;;;;;8.33;4.57;;;;;;;;;;5070736;28;20429;-66
2020/12/12 10:31:33;;;;;;;6.53;4.87;;;;;;;;;;5065025;28;20453;-65
2020/12/12 10:33:59;;;;;;;6.80;4.30;;;;;;;;;;5067264;28;20425;-66
2020/12/12 10:36:24;;;;;;;6.17;5.03;;;;;;;;;;5070149;28;20540;-66
2020/12/12 10:38:52;;;;;;;6.03;4.40;;;;;;;;;;5071198;28;20421;-65
2020/12/12 10:41:18;;;;;;;6.97;4.50;;;;;;;;;;5073514;28;20405;-66
2020/12/12 10:43:44;;;;;;;8.80;4.37;;;;;;;;;;5072150;28;20421;-66
2020/12/12 10:46:10;;;;;;;6.00;4.30;;;;;;;;;;5071884;28;20428;-65
2020/12/12 10:48:36;;;;;;;8.50;4.97;;;;;;;;;;5071972;28;20421;-65
2020/12/12 10:51:02;;;;;;;7.77;5.60;;;;;;;;;;5072816;28;20452;-65
2020/12/12 10:53:28;;;;;;;6.73;4.80;;;;;;;;;;5072379;28;20425;-65
2020/12/12 10:55:54;;;;;;;6.30;4.97;;;;;;;;;;5072934;28;20919;-66
2020/12/12 10:58:20;;;;;;;7.33;5.43;;;;;;;;;;5071885;28;20421;-66
2020/12/12 11:00:49;;;;;;;6.00;4.07;;;;;;;;;;5073224;28;20417;-67
2020/12/12 11:03:15;;;;;;;6.13;4.20;;;;;;;;;;5070809;28;20420;-67
2020/12/12 11:05:41;;;;;;;7.97;5.03;;;;;;;;;;5073197;28;20567;-67
2020/12/12 11:08:07;;;;;;;9.73;5.27;;;;;;;;;;5072343;28;20400;-66
2020/12/12 11:10:33;;;;;;;7.27;4.30;;;;;;;;;;5072969;28;21031;-67
2020/12/12 11:12:59;;;;;;;6.53;4.17;;;;;;;;;;5073423;28;20791;-66
2020/12/12 11:15:25;;;;;;;6.87;4.07;;;;;;;;;;5071640;28;20427;-66
2020/12/12 11:17:51;;;;;;;6.90;3.13;;;;;;;;;;5072967;28;20401;-66
2020/12/12 11:20:17;;;;;;;5.57;3.50;;;;;;;;;;5059815;28;20829;-66
2020/12/12 11:22:44;;;;;;;5.70;3.23;;;;;;;;;;5072197;28;20420;-66
2020/12/12 11:25:10;;;;;;;4.73;3.90;;;;;;;;;;5071570;28;20520;-66
2020/12/12 11:27:36;;;;;;;5.50;3.63;;;;;;;;;;5071776;28;20425;-66
2020/12/12 11:30:04;;;;;;;5.90;5.30;;;;;;;;;;5071664;28;20742;-66
2020/12/12 11:32:30;;;;;;;5.73;4.30;;;;;;;;;;5072844;28;20401;-66
2020/12/12 11:35:16;;;;;;;5.63;3.87;;;;;;;;;;5071652;28;20462;-66
2020/12/12 11:48:14;;;;;;;4.53;3.13;;;;;;;;;;5075795;28;20403;-68
2020/12/12 11:50:40;;;;;;;4.80;3.30;;;;;;;;;;5075742;28;20468;-66
2020/12/12 11:53:06;;;;;;;3.73;2.80;;;;;;;;;;5076204;28;20436;-66
2020/12/12 11:55:32;;;;;;;4.00;3.10;;;;;;;;;;5075227;28;20417;-66
2020/12/12 11:57:58;;;;;;;4.73;3.47;;;;;;;;;;5076343;28;20823;-66
2020/12/12 12:00:25;;;;;;;3.40;2.93;;;;;;;;;;5074953;28;20498;-66
2020/12/12 12:02:51;;;;;;;4.03;3.13;;;;;;;;;;5076002;28;20401;-66
2020/12/12 12:05:18;;;;;;;3.53;2.47;;;;;;;;;;5074781;28;20429;-66
2020/12/12 12:07:46;;;;;;;4.00;2.50;;;;;;;;;;5075796;28;20401;-66
2020/12/12 12:12:42;;;;;;;3.13;2.47;;;;;;;;;;5075273;28;20444;-67
2020/12/12 12:15:08;;;;;;;5.77;2.27;;;;;;;;;;5075266;28;20425;-67
2020/12/12 12:17:34;;;;;;;4.50;2.87;;;;;;;;;;5076187;28;20401;-66
2020/12/12 12:20:00;;;;;;;3.10;2.40;;;;;;;;;;5075100;28;20531;-66
2020/12/12 12:22:27;;;;;;;6.30;2.80;;;;;;;;;;5073750;28;20433;-66
2020/12/12 12:24:55;;;;;;;3.33;2.87;;;;;;;;;;5074854;28;20512;-66
2020/12/12 12:27:21;;;;;;;5.10;3.00;;;;;;;;;;5075475;28;20405;-67
2020/12/12 12:29:47;;;;;;;6.50;2.60;;;;;;;;;;5074493;28;20540;-66
2020/12/12 12:32:13;;;;;;;3.07;2.60;;;;;;;;;;5075315;28;20463;-67
2020/12/12 12:34:39;;;;;;;3.33;2.53;;;;;;;;;;5074842;28;20429;-67
2020/12/12 12:37:05;;;;;;;5.17;3.13;;;;;;;;;;5076252;28;20890;-66
2020/12/12 12:39:31;;;;;;;3.63;2.30;;;;;;;;;;5075173;28;21036;-66
2020/12/12 12:41:57;;;;;;;4.67;2.90;;;;;;;;;;5075678;28;20446;-66
2020/12/12 12:44:23;;;;;;;3.50;2.63;;;;;;;;;;5073502;28;20566;-66
2020/12/12 12:46:49;;;;;;;2.50;1.93;;;;;;;;;;5074468;28;20842;-67
2020/12/12 12:49:16;;;;;;;3.97;2.60;;;;;;;;;;5074224;28;20453;-67
2020/12/12 12:51:42;;;;;;;4.10;2.77;;;;;;;;;;5075044;28;20976;-66
2020/12/12 12:54:08;;;;;;;2.83;2.47;;;;;;;;;;5074567;28;20780;-65
2020/12/12 12:56:35;;;;;;;9.60;3.90;;;;;;;;;;5074973;28;20398;-66
2020/12/12 12:59:01;;;;;;;5.67;2.83;;;;;;;;;;5074007;28;20421;-65
2020/12/12 13:01:27;;;;;;;3.20;2.03;;;;;;;;;;5075116;28;20408;-66
2020/12/12 13:03:54;;;;;;;3.03;2.10;;;;;;;;;;5074045;28;20412;-65
2020/12/12 13:06:23;;;;;;;4.00;2.73;;;;;;;;;;5075072;28;20428;-66
2020/12/12 13:08:49;;;;;;;2.70;1.80;;;;;;;;;;5073734;28;20429;-65
2020/12/12 13:11:15;;;;;;;2.90;1.80;;;;;;;;;;5074398;28;20825;-66
2020/12/12 13:13:42;;;;;;;2.13;1.63;;;;;;;;;;5072963;28;20452;-65
2020/12/12 13:16:08;;;;;;;1.87;1.43;;;;;;;;;;5074366;28;20436;-65
2020/12/12 13:18:48;;;;;;;2.37;1.70;;;;;;;;;;5070882;28;21022;-65
2020/12/12 13:21:23;;;;;;;1.97;1.63;;;;;;;;;;5074594;28;20759;-67
2020/12/12 13:23:49;;;;;;;2.00;1.70;;;;;;;;;;5071485;28;20491;-65
2020/12/12 13:26:22;;;;;;;4.33;1.93;;;;;;;;;;5074599;28;20483;-65
2020/12/12 13:31:37;;;;;;;2.03;1.50;;;;;;;;;;5036729;28;20469;-66
2020/12/12 13:34:04;;;;;;;1.60;1.10;;;;;;;;;;5073658;28;20397;-67
2020/12/12 13:36:31;;;;;;;2.50;1.47;;;;;;;;;;5074186;28;20492;-66
2020/12/12 13:38:57;;;;;;;2.60;1.90;;;;;;;;;;5072594;28;20777;-67
2020/12/12 13:41:24;;;;;;;2.23;1.40;;;;;;;;;;5073894;28;20405;-66
2020/12/12 13:43:50;;;;;;;1.93;1.30;;;;;;;;;;5072961;28;20401;-65
2020/12/12 13:46:16;;;;;;;3.23;1.80;;;;;;;;;;5073841;28;20975;-66
2020/12/12 13:48:42;;;;;;;3.73;1.60;;;;;;;;;;5073967;28;20804;-65
2020/12/12 13:51:09;;;;;;;2.57;1.80;;;;;;;;;;5072758;28;20522;-66
2020/12/12 13:53:35;;;;;;;5.30;1.63;;;;;;;;;;5074062;28;20398;-66
2020/12/12 13:56:01;;;;;;;3.80;1.80;;;;;;;;;;5072802;28;20435;-66
2020/12/12 13:58:27;;;;;;;2.93;1.90;;;;;;;;;;5073647;28;20397;-66
2020/12/12 14:00:53;;;;;;;5.80;2.00;;;;;;;;;;5072533;28;20479;-67
2020/12/12 14:03:19;;;;;;;7.37;5.03;;;;;;;;;;5073849;28;20812;-65
2020/12/12 14:05:51;;;;;;;4.20;2.43;;;;;;;;;;5072008;28;20424;-66
2020/12/12 14:08:30;;;;;;;5.67;1.90;;;;;;;;;;5073680;28;20382;-66
2020/12/12 14:24:27;;;;;;;2.67;1.80;;;;;;;;;;5016271;28;20462;-71
2020/12/12 14:29:41;;;;;;;2.50;2.10;;;;;;;;;;5032301;28;20557;-71
2020/12/12 14:32:08;;;;;;;2.40;1.70;;;;;;;;;;5033303;28;20450;-71
2020/12/12 14:34:34;;;;;;;3.03;2.10;;;;;;;;;;5032466;28;20445;-70
2020/12/12 14:37:00;;;;;;;2.53;2.00;;;;;;;;;;5031715;28;20445;-70
2020/12/12 14:39:26;;;;;;;5.43;1.90;;;;;;;;;;5033298;28;20438;-70
2020/12/12 14:41:53;;;;;;;2.43;2.10;;;;;;;;;;5014518;28;20427;-70
2020/12/12 14:44:19;;;;;;;3.30;2.30;;;;;;;;;;4995771;28;20462;-70
2020/12/12 14:46:48;;;;;;;2.83;2.40;;;;;;;;;;5029517;28;20429;-70
2020/12/12 14:49:15;;;;;;;3.50;2.57;;;;;;;;;;5032465;28;20431;-70
2020/12/12 14:51:41;;;;;;;3.27;2.10;;;;;;;;;;5032127;28;20794;-71
2020/12/12 14:54:08;;;;;;;2.03;1.83;;;;;;;;;;5033189;28;20756;-70
2020/12/12 14:56:34;;;;;;;2.37;1.67;;;;;;;;;;5032159;28;20509;-70
2020/12/12 14:59:00;;;;;;;2.87;2.50;;;;;;;;;;5033151;28;20402;-70
2020/12/12 15:01:26;;;;;;;3.43;1.50;;;;;;;;;;5032192;28;20824;-71
2020/12/12 15:03:52;;;;;;;3.10;1.90;;;;;;;;;;5033437;28;20418;-71